Unity, WI

7:13 AM CDT on July 29, 2014 (GMT -0500)
Marshfield Municipal (KMFI) Elev 1276 ft | 44.64 °N, 90.19 °W | Change Station

Current weather conditions updated 19 minutes ago

Mostly Cloudy
Mostly Cloudy
58 °F
Feels Like 58 °F
N
8
Wind Variable Wind from NW

Today is forecast to be nearly the same temperature as yesterday. Showers and thunderstorms late.

Today
High -- | Low -- °F
--% Chance of Precip.
Yesterday
High -- | Low -- °F
Precip. -- in
5:43 AM 8:31 PM
Waxing Crescent, 6% visible
Pressure 30.06 in
Visibility 10.0 miles
Clouds Mostly Cloudy 10000 ft
Dew Point 54 °F
Humidity 87%
Rainfall 0.00 in
Snow Depth Not available.
UV 0 out of 12
Pollen 7.10 out of 12
Air Quality Not available.
Flu Activity Not available.
METAR KMFI 291154Z AUTO 31007KT 10SM BKN100 14/12 A3006 RMK AO2 SLP178 60000 T01440122 10167 20122 52004

More Conditions Fewer Conditions

Pressure 30.06 in
Visibility 10.0 miles
Clouds Mostly Cloudy 10000 ft
Dew Point 54 °F
Humidity 87%
Rainfall 0.00 in
Snow Depth Not available.
UV 0 out of 12
Pollen 7.10 out of 12
Air Quality Not available.
Flu Activity Not available.
METAR KMFI 291154Z AUTO 31007KT 10SM BKN100 14/12 A3006 RMK AO2 SLP178 60000 T01440122 10167 20122 52004

More Conditions Fewer Conditions

10-Day Weather Forecast

Almanac

Astronomy

Jul. 29, 2014 Rise Set
Actual Time 5:43 AM CDT 8:31 PM CDT
Civil Twilight 5:09 AM CDT 9:04 PM CDT
Nautical Twilight 4:26 AM CDT 9:47 PM CDT
Astronomical Twilight 3:36 AM CDT 10:37 PM CDT
Moon 8:29 AM CDT 9:33 PM CDT
Length of Visible Light 15h 55m
Length of Day
14h 47m
Tomorrow will be 2m 18s shorter.
Waxing Crescent, 6% of the Moon is Illuminated
Today
Waxing Crescent
Aug 3
First Quarter
Aug 10
Full
Aug 17
Last Quarter
Aug 25
New

Today's Extremes

State Highs State Lows

Community

WunderPhotos

Upload Photos

1,738,696 photos uploaded!

WunderBlogs® & News

By Dr. Jeff Masters
Director of Meteorology, Weather Underground
By Kari Strenfel
Meteorologist, Weather Underground
By Christopher C. Burt
Weather Historian, Weather Underground
July 29, 2014
July 29, 2014
July 29, 2014

Nearby

Snow Depth

Station Depth Elevation
No new snow has been reported.

Earthquake Activity

City Distance Mag. Time & Date
No recent earthquake activity has been reported nearby.
Minimum magnitude displayed is 2.5.

Coastal Water Temperatures

Place Temperature
No Stations Reporting

Nearby Weather Stations

Station Location Temp. Dew Point Humidity Wind Precip. Elev Updated Type
Rib Falls Repair, Athens, WI 56.7 °F 55 °F 95% WNW  at  0.0 mph 0.00 in / hr 1348 ft 7:13 AM CDT Normal

Show More Stations Show Fewer Stations